createdAt,value
2023-04-02T00:01:39.797Z,10.55
2023-04-02T00:04:12.809Z,10.61
2023-04-02T00:06:40.118Z,10.56
2023-04-02T00:09:15.621Z,10.56
2023-04-02T00:11:44.394Z,10.57
2023-04-02T00:14:32.333Z,10.57
2023-04-02T00:17:02.254Z,10.57
2023-04-02T00:19:35.397Z,10.56
2023-04-02T00:22:03.222Z,10.53
2023-04-02T00:24:29.833Z,10.53
2023-04-02T00:26:56.437Z,10.56
2023-04-02T00:29:23.086Z,10.53
2023-04-02T00:31:54.481Z,10.49
2023-04-02T00:34:24.121Z,10.54
2023-04-02T00:36:52.327Z,10.51
2023-04-02T00:39:23.673Z,10.49
2023-04-02T00:41:54.268Z,10.46
2023-04-02T00:44:20.915Z,10.37
2023-04-02T00:46:48.964Z,10.40
2023-04-02T00:49:18.254Z,10.46
2023-04-02T00:51:51.196Z,10.48
2023-04-02T00:54:21.725Z,10.46
2023-04-02T00:56:54.975Z,10.43
2023-04-02T00:59:34.216Z,10.50
2023-04-02T01:02:22.815Z,10.50
2023-04-02T01:04:58.426Z,10.52
2023-04-02T01:07:51.252Z,10.50
2023-04-02T01:10:29.773Z,10.52
2023-04-02T01:13:39.810Z,10.54
2023-04-02T01:16:15.485Z,10.59
2023-04-02T01:18:44.829Z,10.54
2023-04-02T01:21:21.050Z,10.54
2023-04-02T01:24:02.137Z,10.56
2023-04-02T01:26:43.715Z,10.54
2023-04-02T01:29:16.338Z,10.56
2023-04-02T01:31:45.419Z,10.52
2023-04-02T01:34:16.709Z,10.51
2023-04-02T01:36:49.335Z,10.47
2023-04-02T01:39:33.692Z,10.47
2023-04-02T01:42:06.076Z,10.48
2023-04-02T01:44:39.923Z,10.40
2023-04-02T01:47:12.093Z,10.40
2023-04-02T01:49:40.120Z,10.32
2023-04-02T01:52:07.428Z,10.34
2023-04-02T01:54:36.824Z,10.35
2023-04-02T01:57:04.723Z,10.34
2023-04-02T01:59:31.443Z,10.41
2023-04-02T02:02:12.172Z,10.39
2023-04-02T02:04:39.747Z,10.34
2023-04-02T02:07:11.873Z,10.37
2023-04-02T02:09:38.633Z,10.38
2023-04-02T02:12:05.465Z,10.35
2023-04-02T02:14:33.257Z,10.33
2023-04-02T02:17:02.421Z,10.32
2023-04-02T02:19:35.181Z,10.27
2023-04-02T02:22:26.799Z,10.27
2023-04-02T02:24:55.213Z,10.27
2023-04-02T02:27:21.863Z,10.27
2023-04-02T02:30:00.167Z,10.32
2023-04-02T02:32:31.627Z,10.19
2023-04-02T02:35:28.930Z,10.29
2023-04-02T02:38:06.235Z,10.35
2023-04-02T02:40:40.853Z,10.38
2023-04-02T02:43:12.481Z,10.37
2023-04-02T02:45:42.840Z,10.40
2023-04-02T02:48:14.300Z,10.37
2023-04-02T02:50:41.860Z,10.39
2023-04-02T02:53:20.306Z,10.42
2023-04-02T02:55:49.115Z,10.47
2023-04-02T02:58:25.112Z,10.45
2023-04-02T03:00:51.888Z,10.38
2023-04-02T03:03:26.503Z,10.33
2023-04-02T03:05:56.780Z,10.18
2023-04-02T03:08:34.728Z,10.15
2023-04-02T03:11:15.976Z,10.02
2023-04-02T03:13:46.180Z,10.01
2023-04-02T03:16:23.020Z,10.10
2023-04-02T03:19:06.225Z,10.11
2023-04-02T03:21:50.824Z,10.18
2023-04-02T03:24:52.303Z,10.19
2023-04-02T03:27:25.275Z,10.16
2023-04-02T03:30:48.064Z,10.17
2023-04-02T03:33:29.733Z,10.21
2023-04-02T03:36:10.552Z,10.26
2023-04-02T03:38:43.675Z,10.21
2023-04-02T03:41:10.112Z,10.11
2023-04-02T03:44:05.643Z,10.06
2023-04-02T03:46:42.873Z,9.83
2023-04-02T03:49:43.855Z,9.62
2023-04-02T03:52:27.114Z,9.40
2023-04-02T03:54:59.170Z,9.31
2023-04-02T03:57:31.265Z,9.22
2023-04-02T04:00:04.575Z,9.21
2023-04-02T04:02:41.207Z,9.16
2023-04-02T04:05:24.307Z,9.13
2023-04-02T04:07:55.690Z,9.07
2023-04-02T04:10:26.118Z,9.06
2023-04-02T04:12:56.605Z,8.97
2023-04-02T04:15:53.658Z,9.04
2023-04-02T04:18:34.014Z,9.08
2023-04-02T04:21:26.278Z,9.03
2023-04-02T04:23:52.862Z,9.01
2023-04-02T04:26:43.693Z,9.04
2023-04-02T04:29:47.651Z,9.07
2023-04-02T04:32:26.153Z,9.12
2023-04-02T04:34:59.200Z,9.16
2023-04-02T04:37:32.857Z,9.22
2023-04-02T04:40:11.310Z,9.25
2023-04-02T04:42:41.837Z,9.29
2023-04-02T04:45:28.685Z,9.35
2023-04-02T04:48:00.041Z,9.41
2023-04-02T04:51:00.737Z,9.47
2023-04-02T04:53:30.031Z,9.46
2023-04-02T04:56:06.017Z,9.53
2023-04-02T04:58:50.672Z,9.54
2023-04-02T05:01:40.713Z,9.55
2023-04-02T05:04:26.250Z,9.53
2023-04-02T05:07:00.827Z,9.58
2023-04-02T05:09:33.072Z,9.60
2023-04-02T05:12:18.255Z,9.63
2023-04-02T05:14:51.948Z,9.59
2023-04-02T05:17:24.426Z,9.63
2023-04-02T05:20:26.044Z,9.61
2023-04-02T05:23:15.118Z,9.69
2023-04-02T05:26:21.185Z,9.76
2023-04-02T05:28:50.788Z,9.83
2023-04-02T05:31:25.272Z,9.91
2023-04-02T05:33:52.897Z,9.94
2023-04-02T05:36:20.713Z,10.01
2023-04-02T05:38:48.692Z,10.08
2023-04-02T05:41:28.797Z,10.13
2023-04-02T05:44:01.611Z,10.17
2023-04-02T05:46:33.726Z,10.13
2023-04-02T05:49:00.557Z,10.04
2023-04-02T05:51:47.105Z,9.93
2023-04-02T05:54:29.413Z,9.79
2023-04-02T05:57:10.197Z,9.81
2023-04-02T05:59:47.127Z,9.80
2023-04-02T06:02:26.672Z,9.74
2023-04-02T06:04:58.982Z,9.83
2023-04-02T06:07:42.003Z,9.94
2023-04-02T06:10:24.640Z,9.96
2023-04-02T06:12:57.317Z,10.09
2023-04-02T06:15:24.684Z,10.23
2023-04-02T06:17:59.764Z,10.31
2023-04-02T06:20:26.885Z,10.32
2023-04-02T06:22:58.858Z,10.30
2023-04-02T06:25:33.785Z,10.27
2023-04-02T06:28:03.820Z,10.41
2023-04-02T06:30:34.107Z,10.48
2023-04-02T06:33:00.908Z,10.53
2023-04-02T06:35:27.791Z,10.40
2023-04-02T06:37:58.057Z,10.54
2023-04-02T06:40:33.729Z,10.63
2023-04-02T06:43:06.302Z,10.72
2023-04-02T06:45:38.334Z,10.69
2023-04-02T06:48:05.829Z,10.68
2023-04-02T06:50:55.668Z,10.72
2023-04-02T06:53:27.676Z,10.75
2023-04-02T06:56:04.011Z,10.89
2023-04-02T06:58:30.582Z,10.94
2023-04-02T07:00:57.276Z,10.93
2023-04-02T07:03:27.194Z,11.01
2023-04-02T07:05:54.508Z,11.09
2023-04-02T07:08:21.631Z,10.87
2023-04-02T07:10:48.268Z,10.99
2023-04-02T07:13:23.323Z,10.98
2023-04-02T07:15:54.435Z,11.17
2023-04-02T07:18:30.988Z,11.18
2023-04-02T07:20:57.766Z,11.18
2023-04-02T07:23:24.948Z,11.27
2023-04-02T07:25:54.199Z,11.32
2023-04-02T07:28:22.757Z,11.37
2023-04-02T07:30:51.100Z,11.34
2023-04-02T07:33:23.056Z,11.41
2023-04-02T07:35:50.463Z,11.56
2023-04-02T07:38:17.237Z,11.62
2023-04-02T07:40:43.999Z,11.73
2023-04-02T07:43:11.050Z,11.82
2023-04-02T07:45:38.114Z,11.85
2023-04-02T07:48:09.545Z,11.90
2023-04-02T07:50:36.433Z,12.04
2023-04-02T07:53:03.232Z,12.15
2023-04-02T07:55:29.837Z,12.21
2023-04-02T07:57:58.621Z,12.29
2023-04-02T08:00:26.642Z,12.32
2023-04-02T08:02:53.545Z,12.37
2023-04-02T08:05:20.452Z,12.56
2023-04-02T08:07:55.150Z,13.01
2023-04-02T08:10:21.661Z,13.27
2023-04-02T08:12:48.355Z,13.61
2023-04-02T08:15:15.955Z,13.77
2023-04-02T08:17:43.417Z,14.05
2023-04-02T08:20:19.304Z,14.46
2023-04-02T08:22:46.845Z,14.77
2023-04-02T08:25:13.790Z,14.85
2023-04-02T08:27:40.388Z,15.14
2023-04-02T08:30:08.943Z,14.94
2023-04-02T08:32:35.611Z,15.18
2023-04-02T08:35:02.367Z,15.88
2023-04-02T08:37:28.889Z,16.62
2023-04-02T08:39:55.591Z,17.29
2023-04-02T08:42:44.269Z,17.68
2023-04-02T08:45:47.330Z,17.48
2023-04-02T08:48:14.715Z,17.59
2023-04-02T08:50:43.412Z,17.71
2023-04-02T08:53:22.599Z,17.96
2023-04-02T08:56:06.876Z,18.33
2023-04-02T08:58:36.248Z,18.78
2023-04-02T09:01:06.429Z,18.15
2023-04-02T09:03:41.665Z,18.49
2023-04-02T09:06:14.774Z,19.13
2023-04-02T09:08:44.913Z,19.79
2023-04-02T09:11:17.274Z,20.82
2023-04-02T09:13:47.290Z,21.86
2023-04-02T09:16:17.152Z,22.24
2023-04-02T09:18:45.466Z,23.04
2023-04-02T09:21:20.957Z,22.62
2023-04-02T09:23:48.849Z,22.78
2023-04-02T09:26:26.048Z,21.82
2023-04-02T09:29:02.459Z,21.64
2023-04-02T09:31:39.298Z,21.83
2023-04-02T09:34:27.734Z,19.88
2023-04-02T09:36:54.426Z,18.90
2023-04-02T09:39:23.660Z,18.55
2023-04-02T09:41:58.998Z,18.23
2023-04-02T09:44:31.408Z,17.56
2023-04-02T09:47:02.046Z,17.22
2023-04-02T09:49:32.491Z,17.35
2023-04-02T09:52:28.944Z,17.38
2023-04-02T09:55:22.380Z,19.01
2023-04-02T09:57:50.929Z,19.68
2023-04-02T10:03:23.789Z,21.64
2023-04-02T10:06:06.565Z,22.36
2023-04-02T10:08:33.877Z,23.25
2023-04-02T10:11:03.709Z,21.38
2023-04-02T10:13:36.004Z,20.67
2023-04-02T10:16:11.518Z,19.63
2023-04-02T10:18:50.268Z,20.54
2023-04-02T10:21:25.738Z,19.94
2023-04-02T10:23:52.322Z,21.65
2023-04-02T10:26:21.523Z,20.92
2023-04-02T10:29:06.705Z,20.05
2023-04-02T10:31:51.681Z,19.48
2023-04-02T10:34:26.148Z,19.28
2023-04-02T10:36:55.354Z,19.44
2023-04-02T10:39:34.401Z,19.16
2023-04-02T10:42:20.040Z,18.48
2023-04-02T10:44:55.415Z,18.11
2023-04-02T10:47:43.426Z,17.95
2023-04-02T10:50:34.512Z,17.88
2023-04-02T10:53:24.645Z,17.23
2023-04-02T10:55:58.875Z,17.13
2023-04-02T10:58:28.774Z,16.78
2023-04-02T11:01:01.407Z,16.95
2023-04-02T11:03:39.417Z,16.86
2023-04-02T11:06:17.569Z,16.61
2023-04-02T11:08:47.222Z,16.72
2023-04-02T11:11:27.787Z,16.74
2023-04-02T11:13:58.699Z,16.83
2023-04-02T11:16:25.845Z,16.89
2023-04-02T11:19:17.335Z,17.13
2023-04-02T11:22:00.063Z,17.22
2023-04-02T11:24:30.408Z,17.44
2023-04-02T11:27:26.051Z,18.41
2023-04-02T11:30:04.527Z,18.89
2023-04-02T11:32:49.848Z,18.70
2023-04-02T11:35:31.811Z,19.01
2023-04-02T11:38:18.584Z,19.17
2023-04-02T11:40:45.185Z,19.29
2023-04-02T11:43:35.243Z,18.66
2023-04-02T11:46:25.950Z,18.40
2023-04-02T11:48:52.497Z,17.43
2023-04-02T11:51:21.846Z,17.57
2023-04-02T11:53:53.891Z,17.64
2023-04-02T11:56:29.466Z,17.14
2023-04-02T11:59:15.650Z,16.60
2023-04-02T12:02:00.216Z,16.37
2023-04-02T12:04:54.618Z,16.07
2023-04-02T12:07:45.208Z,15.73
2023-04-02T12:10:24.548Z,14.98
2023-04-02T12:12:51.343Z,14.54
2023-04-02T12:15:30.005Z,14.14
2023-04-02T12:18:06.482Z,13.86
2023-04-02T12:20:34.257Z,13.41
2023-04-02T12:23:01.886Z,13.09
2023-04-02T12:25:34.465Z,12.68
2023-04-02T12:28:19.232Z,12.45
2023-04-02T12:30:47.847Z,12.52
2023-04-02T12:33:20.282Z,12.64
2023-04-02T12:35:48.732Z,12.74
2023-04-02T12:38:46.412Z,12.72
2023-04-02T12:41:26.562Z,12.70
2023-04-02T12:44:17.670Z,12.75
2023-04-02T12:46:46.316Z,12.81
2023-04-02T12:49:37.056Z,12.91
2023-04-02T12:52:12.974Z,12.93
2023-04-02T12:54:51.450Z,12.96
2023-04-02T12:57:26.775Z,13.00
2023-04-02T13:00:01.716Z,12.96
2023-04-02T13:02:42.824Z,12.96
2023-04-02T13:05:10.076Z,12.95
2023-04-02T13:07:37.427Z,12.89
2023-04-02T13:10:24.770Z,12.99
2023-04-02T13:12:57.573Z,13.16
2023-04-02T13:15:33.164Z,13.26
2023-04-02T13:18:06.948Z,13.48
2023-04-02T13:20:42.421Z,13.47
2023-04-02T13:23:27.343Z,13.66
2023-04-02T13:25:54.335Z,13.83
2023-04-02T13:28:21.427Z,14.07
2023-04-02T13:30:48.125Z,14.25
2023-04-02T13:33:15.408Z,14.35
2023-04-02T13:35:43.182Z,14.42
2023-04-02T13:38:10.088Z,14.42
2023-04-02T13:40:37.877Z,14.47
2023-04-02T13:43:06.435Z,14.45
2023-04-02T13:45:36.823Z,14.49
2023-04-02T13:48:04.231Z,14.82
2023-04-02T13:50:33.124Z,14.60
2023-04-02T13:53:07.198Z,14.72
2023-04-02T13:55:38.626Z,14.69
2023-04-02T13:58:05.858Z,14.92
2023-04-02T14:00:33.703Z,15.01
2023-04-02T14:03:10.894Z,15.00
2023-04-02T14:05:46.452Z,14.93
2023-04-02T14:08:28.228Z,14.99
2023-04-02T14:11:02.673Z,14.90
2023-04-02T14:13:44.124Z,14.90
2023-04-02T14:16:41.314Z,14.95
2023-04-02T14:19:34.422Z,14.88
2023-04-02T14:22:28.783Z,14.75
2023-04-02T14:25:34.264Z,14.57
2023-04-02T14:28:39.390Z,14.56
2023-04-02T14:31:18.319Z,14.34
2023-04-02T14:34:05.081Z,14.21
2023-04-02T14:36:56.131Z,14.16
2023-04-02T14:39:25.655Z,14.14
2023-04-02T14:41:57.215Z,14.13
2023-04-02T14:44:27.870Z,14.18
2023-04-02T14:47:05.284Z,14.22
2023-04-02T14:49:37.165Z,14.34
2023-04-02T14:52:06.037Z,14.41
2023-04-02T14:54:59.344Z,14.39
2023-04-02T14:57:30.735Z,14.43
2023-04-02T15:00:03.196Z,14.53
2023-04-02T15:03:03.118Z,14.58
2023-04-02T15:05:39.722Z,14.68
2023-04-02T15:08:48.339Z,14.70
2023-04-02T15:11:30.983Z,14.80
2023-04-02T15:14:20.155Z,14.85
2023-04-02T15:16:47.045Z,14.95
2023-04-02T15:19:16.527Z,15.08
2023-04-02T15:21:59.092Z,15.03
2023-04-02T15:24:55.896Z,14.84
2023-04-02T15:27:37.377Z,14.61
2023-04-02T15:30:26.864Z,14.35
2023-04-02T15:33:16.106Z,14.22
2023-04-02T15:35:51.495Z,14.27
2023-04-02T15:38:30.988Z,14.27
2023-04-02T15:41:08.640Z,14.40
2023-04-02T15:43:48.261Z,14.44
2023-04-02T15:46:33.629Z,14.38
2023-04-02T15:49:21.885Z,14.39
2023-04-02T15:51:59.471Z,14.18
2023-04-02T15:54:25.978Z,13.92
2023-04-02T15:57:42.856Z,13.74
2023-04-02T16:00:38.566Z,13.53
2023-04-02T16:03:20.756Z,13.41
2023-04-02T16:06:08.793Z,13.09
2023-04-02T16:09:00.394Z,12.99
2023-04-02T16:11:26.971Z,13.01
2023-04-02T16:14:16.837Z,12.90
2023-04-02T16:16:47.984Z,12.74
2023-04-02T16:19:38.481Z,12.76
2023-04-02T16:22:34.244Z,12.63
2023-04-02T16:25:13.432Z,12.64
2023-04-02T16:28:22.544Z,12.60
2023-04-02T16:30:53.153Z,12.50
2023-04-02T16:33:28.437Z,12.38
2023-04-02T16:36:13.491Z,12.38
2023-04-02T16:38:59.277Z,12.40
2023-04-02T16:41:47.637Z,12.28
2023-04-02T16:44:52.509Z,12.26
2023-04-02T16:48:00.881Z,12.19
2023-04-02T16:50:55.821Z,12.20
2023-04-02T16:54:01.093Z,12.25
2023-04-02T16:56:35.462Z,12.26
2023-04-02T16:59:14.056Z,12.29
2023-04-02T17:01:53.775Z,12.25
2023-04-02T17:04:44.898Z,12.24
2023-04-02T17:07:26.582Z,12.20
2023-04-02T17:10:00.560Z,12.00
2023-04-02T17:12:44.385Z,11.83
2023-04-02T17:15:28.618Z,11.80
2023-04-02T17:18:00.952Z,11.73
2023-04-02T17:20:28.268Z,11.64
2023-04-02T17:22:56.121Z,11.52
2023-04-02T17:25:28.142Z,11.39
2023-04-02T17:27:56.763Z,11.35
2023-04-02T17:30:43.630Z,11.23
2023-04-02T17:33:15.736Z,11.24
2023-04-02T17:36:17.717Z,11.16
2023-04-02T17:38:52.843Z,11.15
2023-04-02T17:41:29.457Z,11.16
2023-04-02T17:44:24.391Z,10.97
2023-04-02T17:47:22.419Z,10.98
2023-04-02T17:50:14.854Z,10.94
2023-04-02T17:52:54.236Z,10.87
2023-04-02T17:55:58.262Z,10.81
2023-04-02T17:59:05.239Z,10.76
2023-04-02T18:01:44.074Z,10.52
2023-04-02T18:04:28.030Z,10.53
2023-04-02T18:07:19.112Z,10.46
2023-04-02T18:10:24.186Z,10.42
2023-04-02T18:12:54.262Z,10.30
2023-04-02T18:15:53.632Z,10.29
2023-04-02T18:18:28.913Z,10.20
2023-04-02T18:21:07.169Z,10.19
2023-04-02T18:23:37.783Z,10.09
2023-04-02T18:26:38.954Z,10.02
2023-04-02T18:29:24.088Z,10.01
2023-04-02T18:31:56.204Z,10.04
2023-04-02T18:34:53.009Z,10.02
2023-04-02T18:37:41.952Z,9.90
2023-04-02T18:40:26.484Z,9.94
2023-04-02T18:42:53.007Z,9.95
2023-04-02T18:45:28.920Z,9.89
2023-04-02T18:48:43.206Z,9.90
2023-04-02T18:51:21.989Z,9.87
2023-04-02T18:54:18.398Z,9.89
2023-04-02T18:56:45.044Z,9.78
2023-04-02T18:59:32.366Z,9.75
2023-04-02T19:02:05.674Z,9.74
2023-04-02T19:04:34.760Z,9.78
2023-04-02T19:07:06.778Z,9.71
2023-04-02T19:09:41.043Z,9.55
2023-04-02T19:12:15.639Z,9.66
2023-04-02T19:14:42.324Z,9.64
2023-04-02T19:17:33.533Z,9.65
2023-04-02T19:20:12.008Z,9.59
2023-04-02T19:22:54.361Z,9.59
2023-04-02T19:25:35.738Z,9.55
2023-04-02T19:28:12.985Z,9.51
2023-04-02T19:31:23.420Z,9.52
2023-04-02T19:33:58.122Z,9.38
2023-04-02T19:36:24.677Z,9.11
2023-04-02T19:39:31.751Z,9.04
2023-04-02T19:42:22.587Z,8.94
2023-04-02T19:44:51.924Z,8.97
2023-04-02T19:47:20.067Z,9.00
2023-04-02T19:49:46.805Z,8.88
2023-04-02T19:52:13.610Z,8.84
2023-04-02T19:54:40.301Z,8.77
2023-04-02T19:57:07.133Z,8.79
2023-04-02T19:59:33.799Z,8.75
2023-04-02T20:02:00.366Z,8.65
2023-04-02T20:04:26.976Z,8.60
2023-04-02T20:06:53.626Z,8.56
2023-04-02T20:09:20.196Z,8.60
2023-04-02T20:11:46.834Z,8.47
2023-04-02T20:14:13.549Z,8.56
2023-04-02T20:16:40.179Z,8.54
2023-04-02T20:19:06.895Z,8.59
2023-04-02T20:21:33.511Z,8.66
2023-04-02T20:24:00.200Z,8.48
2023-04-02T20:26:26.895Z,8.64
2023-04-02T20:28:53.560Z,8.54
2023-04-02T20:31:20.204Z,8.54
2023-04-02T20:33:47.099Z,8.47
2023-04-02T20:36:17.196Z,8.51
2023-04-02T20:38:44.419Z,8.55
2023-04-02T20:41:11.142Z,8.48
2023-04-02T20:43:38.166Z,8.44
2023-04-02T20:46:06.300Z,8.44
2023-04-02T20:48:35.121Z,8.46
2023-04-02T20:51:03.568Z,8.44
2023-04-02T20:53:32.141Z,8.36
2023-04-02T20:56:10.190Z,8.34
2023-04-02T20:58:38.326Z,8.33
2023-04-02T21:01:13.306Z,8.27
2023-04-02T21:03:39.964Z,8.20
2023-04-02T21:06:12.172Z,8.28
2023-04-02T21:08:38.745Z,8.20
2023-04-02T21:11:06.143Z,8.26
2023-04-02T21:13:34.001Z,8.15
2023-04-02T21:16:00.625Z,8.22
2023-04-02T21:18:27.362Z,8.19
2023-04-02T21:20:58.400Z,8.20
2023-04-02T21:23:25.220Z,8.14
2023-04-02T21:25:56.566Z,8.22
2023-04-02T21:28:23.543Z,8.14
2023-04-02T21:30:50.093Z,8.14
2023-04-02T21:33:16.662Z,8.10
2023-04-02T21:35:43.307Z,8.17
2023-04-02T21:38:09.893Z,8.11
2023-04-02T21:40:36.495Z,8.13
2023-04-02T21:43:03.143Z,8.12
2023-04-02T21:45:29.655Z,8.05
2023-04-02T21:47:56.194Z,8.08
2023-04-02T21:50:22.835Z,7.99
2023-04-02T21:52:49.384Z,7.91
2023-04-02T21:55:16.024Z,7.93
2023-04-02T21:57:42.559Z,7.93
2023-04-02T22:00:09.665Z,7.88
2023-04-02T22:02:36.289Z,7.83
2023-04-02T22:05:02.950Z,7.84
2023-04-02T22:07:29.553Z,7.80
2023-04-02T22:09:56.053Z,7.83
2023-04-02T22:12:22.669Z,7.77
2023-04-02T22:14:49.275Z,7.76
2023-04-02T22:17:15.801Z,7.69
2023-04-02T22:19:42.368Z,7.77
2023-04-02T22:22:08.920Z,7.76
2023-04-02T22:24:35.515Z,7.75
2023-04-02T22:27:02.070Z,7.78
2023-04-02T22:29:28.692Z,7.82
2023-04-02T22:31:55.190Z,7.84
2023-04-02T22:34:21.744Z,7.82
2023-04-02T22:36:48.356Z,7.80
2023-04-02T22:39:15.004Z,7.66
2023-04-02T22:41:41.610Z,7.70
2023-04-02T22:44:13.693Z,7.63
2023-04-02T22:46:40.262Z,7.48
2023-04-02T22:49:06.899Z,7.52
2023-04-02T22:51:33.466Z,7.58
2023-04-02T22:53:59.962Z,7.54
2023-04-02T22:56:28.842Z,7.58
2023-04-02T22:58:55.595Z,7.50
2023-04-02T23:01:32.511Z,7.49
2023-04-02T23:03:59.509Z,7.49
2023-04-02T23:06:26.544Z,7.46
2023-04-02T23:08:53.448Z,7.47
2023-04-02T23:11:22.985Z,7.38
2023-04-02T23:13:51.926Z,7.38
2023-04-02T23:16:19.532Z,7.41
2023-04-02T23:18:46.537Z,7.39
2023-04-02T23:21:13.272Z,7.28
2023-04-02T23:23:40.328Z,7.22
2023-04-02T23:26:06.798Z,7.20
2023-04-02T23:28:34.604Z,7.13
2023-04-02T23:31:02.885Z,7.26
2023-04-02T23:33:29.413Z,7.21
2023-04-02T23:35:56.076Z,7.16
2023-04-02T23:38:22.711Z,7.07
2023-04-02T23:40:49.322Z,7.08
2023-04-02T23:43:16.085Z,7.13
2023-04-02T23:45:47.267Z,7.09
2023-04-02T23:48:13.816Z,7.20
2023-04-02T23:50:40.462Z,7.23
2023-04-02T23:53:07.137Z,7.19
2023-04-02T23:55:33.656Z,7.30
2023-04-02T23:58:00.201Z,7.17
